Time;durP1;ratioP1;P1;durP2;ratioP2;P2;SDS_P1;SDS_P2;PMS_P1;PMS_P2;Temp;Humidity;BMP_temperature;BMP_pressure;BME280_temperature;BME280_humidity;BME280_pressure;Samples;Min_cycle;Max_cycle;Signal;HPM_P1;HPM_P2
2023/08/12 00:01:24;;;;;;;13.00;10.32;;;20.10;99.90;;;;;;5062123;28;19982;-52
2023/08/12 00:03:51;;;;;;;15.65;10.65;;;20.00;99.90;;;;;;5051260;28;20061;-54
2023/08/12 00:06:16;;;;;;;;;;;20.00;99.90;;;;;;5061263;28;20457;-52
2023/08/12 00:08:44;;;;;;;16.83;10.77;;;20.00;99.90;;;;;;5067944;28;19960;-52
2023/08/12 00:11:10;;;;;;;17.73;11.95;;;20.00;99.90;;;;;;5058556;28;20033;-54
2023/08/12 00:13:36;;;;;;;;;;;19.90;99.90;;;;;;5052648;28;20040;-53
2023/08/12 00:16:01;;;;;;;13.90;11.23;;;19.90;99.90;;;;;;5059256;28;20177;-53
2023/08/12 00:18:27;;;;;;;;;;;19.90;99.90;;;;;;5068584;28;20470;-54
2023/08/12 00:20:52;;;;;;;16.40;10.90;;;19.90;99.90;;;;;;5060487;28;20003;-50
2023/08/12 00:23:18;;;;;;;19.20;10.82;;;19.90;99.90;;;;;;5051430;28;20402;-52
2023/08/12 00:25:43;;;;;;;;;;;19.80;99.90;;;;;;5059860;28;20063;-53
2023/08/12 00:28:10;;;;;;;16.02;11.25;;;19.90;99.90;;;;;;5051911;28;19963;-52
2023/08/12 00:30:35;;;;;;;14.70;10.18;;;19.80;99.90;;;;;;5052079;28;20041;-52
2023/08/12 00:33:02;;;;;;;13.55;10.20;;;19.80;99.90;;;;;;5068009;28;20048;-51
2023/08/12 00:35:28;;;;;;;15.15;9.70;;;19.80;99.90;;;;;;5056642;28;20393;-55
2023/08/12 00:37:53;;;;;;;14.65;10.70;;;19.90;99.90;;;;;;5070318;28;20029;-52
2023/08/12 00:40:19;;;;;;;;;;;19.90;99.90;;;;;;5070941;28;20043;-53
2023/08/12 00:42:44;;;;;;;13.88;10.20;;;19.90;99.90;;;;;;5054036;28;19983;-54
2023/08/12 00:45:12;;;;;;;;;;;19.90;99.90;;;;;;5055531;28;20063;-52
2023/08/12 00:47:38;;;;;;;11.65;9.65;;;19.90;99.90;;;;;;5053827;28;19924;-52
2023/08/12 00:50:08;;;;;;;15.27;9.95;;;19.90;99.90;;;;;;5053620;28;20516;-53
2023/08/12 00:52:34;;;;;;;13.88;10.90;;;20.00;99.90;;;;;;5069362;28;20509;-54
2023/08/12 00:55:00;;;;;;;;;;;20.00;99.90;;;;;;5071882;28;20115;-52
2023/08/12 00:57:25;;;;;;;15.05;10.07;;;20.00;99.90;;;;;;5060486;28;19916;-53
2023/08/12 00:59:52;;;;;;;11.57;9.63;;;20.00;99.90;;;;;;5056207;28;20055;-53
2023/08/12 01:02:18;;;;;;;12.80;9.32;;;19.90;99.90;;;;;;5059262;28;20398;-52
2023/08/12 01:04:43;;;;;;;;;;;19.90;99.90;;;;;;5054953;28;20071;-54
2023/08/12 01:07:09;;;;;;;15.35;9.82;;;19.90;99.90;;;;;;5062868;28;19916;-54
2023/08/12 01:09:35;;;;;;;;;;;19.90;99.90;;;;;;5071616;28;20033;-52
2023/08/12 01:12:12;;;;;;;15.38;9.88;;;19.90;99.90;;;;;;5063306;28;19932;-54
2023/08/12 01:15:05;;;;;;;14.73;10.93;;;19.90;99.90;;;;;;5071795;28;20111;-52
2023/08/12 01:17:32;;;;;;;19.10;12.00;;;19.80;99.90;;;;;;5052990;28;20048;-51
2023/08/12 01:20:02;;;;;;;15.73;10.80;;;19.80;99.90;;;;;;5052815;28;20041;-55
2023/08/12 01:22:32;;;;;;;15.05;11.65;;;19.80;99.90;;;;;;5068188;28;20044;-54
2023/08/12 01:24:58;;;;;;;16.08;12.80;;;19.80;99.90;;;;;;5061749;28;20536;-52
2023/08/12 01:27:23;;;;;;;17.08;12.00;;;19.70;99.90;;;;;;5061682;28;20075;-54
2023/08/12 01:29:49;;;;;;;;;;;19.60;99.90;;;;;;5063839;28;20406;-55
2023/08/12 01:32:37;;;;;;;14.43;10.65;;;19.60;99.90;;;;;;5056949;28;20277;-53
2023/08/12 01:35:11;;;;;;;;;;;19.60;99.90;;;;;;5053756;28;20048;-53
2023/08/12 01:37:39;;;;;;;10.30;9.13;;;19.60;99.90;;;;;;5063518;28;19921;-52
2023/08/12 01:40:06;;;;;;;11.80;8.15;;;19.50;99.90;;;;;;5058552;28;20410;-52
2023/08/12 01:42:35;;;;;;;13.40;10.15;;;19.50;99.90;;;;;;5063838;28;20051;-51
2023/08/12 01:45:02;;;;;;;15.90;10.02;;;19.50;99.90;;;;;;5064659;28;20044;-55
2023/08/12 01:47:28;;;;;;;16.92;9.13;;;19.50;99.90;;;;;;5061971;28;20456;-53
2023/08/12 01:49:55;;;;;;;15.57;10.05;;;19.50;99.90;;;;;;5064514;28;20037;-52
2023/08/12 01:52:21;;;;;;;14.30;10.57;;;19.50;99.90;;;;;;5058418;28;20098;-51
2023/08/12 01:54:46;;;;;;;14.48;8.15;;;19.50;99.90;;;;;;5063215;28;20357;-52
2023/08/12 01:57:12;;;;;;;;;;;19.50;99.90;;;;;;5061715;28;20037;-53
2023/08/12 01:59:38;;;;;;;13.15;9.77;;;19.50;99.90;;;;;;5052194;28;19923;-52
2023/08/12 02:02:04;;;;;;;14.13;9.60;;;19.50;99.90;;;;;;5052896;28;20102;-51
2023/08/12 02:04:30;;;;;;;15.57;9.95;;;19.50;99.90;;;;;;5070310;28;20030;-52
2023/08/12 02:06:56;;;;;;;17.08;9.30;;;19.50;99.90;;;;;;5063000;28;20033;-52
2023/08/12 02:09:22;;;;;;;14.50;9.35;;;19.50;99.90;;;;;;5054244;28;20043;-53
2023/08/12 02:11:48;;;;;;;13.95;9.70;;;19.60;99.90;;;;;;5057871;28;20095;-51
2023/08/12 02:14:14;;;;;;;11.32;8.93;;;19.50;99.90;;;;;;5070009;28;20036;-54
2023/08/12 02:16:40;;;;;;;;;;;19.60;99.90;;;;;;5055870;28;20477;-55
2023/08/12 02:19:06;;;;;;;13.35;9.45;;;19.60;99.90;;;;;;5069776;28;19970;-51
2023/08/12 02:21:31;;;;;;;;;;;19.60;99.90;;;;;;5066546;28;20048;-53
2023/08/12 02:23:57;;;;;;;15.00;9.18;;;19.60;99.90;;;;;;5051859;28;19921;-53
2023/08/12 02:26:22;;;;;;;;;;;19.60;99.90;;;;;;5053460;28;20037;-53
2023/08/12 02:28:48;;;;;;;18.05;10.38;;;19.60;99.90;;;;;;5058229;28;19923;-52
2023/08/12 02:31:15;;;;;;;;;;;19.60;99.90;;;;;;5052044;28;20040;-52
2023/08/12 02:33:41;;;;;;;13.93;9.30;;;19.60;99.90;;;;;;5053943;28;19924;-51
2023/08/12 02:36:06;;;;;;;16.23;10.63;;;19.60;99.90;;;;;;5052998;28;20041;-53
2023/08/12 02:38:32;;;;;;;;;;;19.60;99.90;;;;;;5066716;28;20025;-53
2023/08/12 02:40:57;;;;;;;14.18;9.55;;;19.60;99.90;;;;;;5063317;28;19939;-53
2023/08/12 02:43:23;;;;;;;;;;;19.60;99.90;;;;;;5063422;28;20050;-56
2023/08/12 02:45:48;;;;;;;14.13;10.32;;;19.60;99.90;;;;;;5068689;28;19916;-53
2023/08/12 02:48:14;;;;;;;;;;;19.60;99.90;;;;;;5066176;28;20036;-53
2023/08/12 02:50:39;;;;;;;17.80;10.65;;;19.70;99.90;;;;;;5069343;28;19924;-52
2023/08/12 02:53:05;;;;;;;;;;;19.70;99.90;;;;;;5059277;28;20041;-51
2023/08/12 02:55:32;;;;;;;12.13;9.43;;;19.70;99.90;;;;;;5052241;28;19924;-51
2023/08/12 02:57:58;;;;;;;14.68;10.23;;;19.70;99.90;;;;;;5061738;28;20130;-52
2023/08/12 03:00:24;;;;;;;18.83;10.70;;;19.70;99.90;;;;;;5061544;28;20037;-52
2023/08/12 03:02:49;;;;;;;12.55;9.68;;;19.70;99.90;;;;;;5058408;28;20047;-53
2023/08/12 03:05:15;;;;;;;;;;;19.70;99.90;;;;;;5053511;28;20037;-54
2023/08/12 03:07:41;;;;;;;13.85;10.95;;;19.70;99.90;;;;;;5057468;28;19916;-53
2023/08/12 03:10:06;;;;;;;;;;;19.80;99.90;;;;;;5069287;28;20032;-52
2023/08/12 03:12:32;;;;;;;16.92;10.77;;;19.80;99.90;;;;;;5065424;28;19975;-52
2023/08/12 03:14:58;;;;;;;15.75;10.55;;;19.70;99.90;;;;;;5055124;28;20032;-52
2023/08/12 03:17:23;;;;;;;;;;;19.80;99.90;;;;;;5067632;28;20031;-51
2023/08/12 03:19:49;;;;;;;13.32;10.00;;;19.70;99.90;;;;;;5050851;28;20331;-52
2023/08/12 03:22:15;;;;;;;14.30;11.73;;;19.80;99.90;;;;;;5052107;28;20044;-55
2023/08/12 03:24:41;;;;;;;20.60;12.15;;;19.70;99.90;;;;;;5060794;28;20406;-52
2023/08/12 03:27:06;;;;;;;;;;;19.70;99.90;;;;;;5050826;28;20366;-53
2023/08/12 03:29:32;;;;;;;9.65;8.63;;;19.70;99.90;;;;;;5067293;28;19926;-52
2023/08/12 03:31:58;;;;;;;;;;;19.60;99.90;;;;;;5071189;28;20044;-52
2023/08/12 03:34:23;;;;;;;7.57;6.88;;;19.50;99.90;;;;;;5062655;28;20015;-51
2023/08/12 03:36:50;;;;;;;15.15;7.80;;;19.50;99.90;;;;;;5052982;28;20158;-52
2023/08/12 03:39:16;;;;;;;11.13;8.18;;;19.40;99.90;;;;;;5063715;28;20064;-52
2023/08/12 03:41:42;;;;;;;23.38;8.27;;;19.40;99.90;;;;;;5067733;28;20149;-55
2023/08/12 03:44:08;;;;;;;37.00;8.85;;;19.40;99.90;;;;;;5060067;28;20367;-54
2023/08/12 03:46:34;;;;;;;11.95;7.28;;;19.40;99.90;;;;;;5053535;28;20036;-52
2023/08/12 03:48:59;;;;;;;13.00;8.77;;;19.40;99.90;;;;;;5057898;28;20111;-53
2023/08/12 03:51:25;;;;;;;;;;;19.40;99.90;;;;;;5050703;28;20029;-51
2023/08/12 03:53:51;;;;;;;12.38;10.35;;;19.30;99.90;;;;;;5051508;28;20442;-52
2023/08/12 03:56:17;;;;;;;;;;;19.30;99.90;;;;;;5061110;28;20036;-54
2023/08/12 03:58:43;;;;;;;20.50;11.65;;;19.20;99.90;;;;;;5060738;28;19939;-52
2023/08/12 04:01:08;;;;;;;12.85;9.93;;;19.20;99.90;;;;;;5065571;28;20501;-53
2023/08/12 04:03:34;;;;;;;20.25;10.82;;;19.20;99.90;;;;;;5063480;28;20044;-54
2023/08/12 04:06:00;;;;;;;10.20;9.23;;;19.20;99.90;;;;;;5048552;28;20041;-53
2023/08/12 04:08:25;;;;;;;;;;;19.10;99.90;;;;;;5051643;28;20037;-53
2023/08/12 04:10:51;;;;;;;14.48;10.95;;;19.10;99.90;;;;;;5054262;28;19962;-53
2023/08/12 04:13:17;;;;;;;;;;;19.10;99.90;;;;;;5049952;28;20099;-53
2023/08/12 04:15:47;;;;;;;14.77;11.50;;;19.10;99.90;;;;;;5053867;28;19921;-52
2023/08/12 04:18:13;;;;;;;17.70;13.80;;;19.20;99.90;;;;;;5049693;28;20080;-54
2023/08/12 04:20:39;;;;;;;17.20;12.38;;;19.20;99.90;;;;;;5064205;28;20036;-52
2023/08/12 04:23:05;;;;;;;24.45;15.65;;;19.20;99.90;;;;;;5068183;28;20528;-55
2023/08/12 04:25:30;;;;;;;16.48;11.45;;;19.20;99.90;;;;;;5053570;28;20486;-52
2023/08/12 04:27:56;;;;;;;;;;;19.20;99.90;;;;;;5055335;28;20039;-52
2023/08/12 04:30:21;;;;;;;15.65;12.82;;;19.20;99.90;;;;;;5066558;28;20019;-53
2023/08/12 04:32:47;;;;;;;16.67;12.52;;;19.20;99.90;;;;;;5067948;28;20076;-54
2023/08/12 04:35:13;;;;;;;18.13;14.77;;;19.20;99.90;;;;;;5057311;28;20033;-54
2023/08/12 04:37:38;;;;;;;;;;;19.20;99.90;;;;;;5049990;28;20409;-53
2023/08/12 04:40:07;;;;;;;26.27;16.92;;;19.20;99.90;;;;;;5058555;28;19918;-54
2023/08/12 04:42:32;;;;;;;28.40;17.45;;;19.20;99.90;;;;;;5065972;28;20064;-52
2023/08/12 04:44:58;;;;;;;28.98;21.60;;;19.20;99.90;;;;;;5060287;28;20116;-53
2023/08/12 04:47:23;;;;;;;;;;;19.30;99.90;;;;;;5053456;28;20293;-53
2023/08/12 04:49:49;;;;;;;25.17;18.15;;;19.30;99.90;;;;;;5066587;28;19916;-53
2023/08/12 04:52:15;;;;;;;;;;;19.30;99.90;;;;;;5058679;28;20052;-52
2023/08/12 04:54:40;;;;;;;29.35;21.27;;;19.30;99.90;;;;;;5054553;28;20365;-54
2023/08/12 04:57:06;;;;;;;36.70;22.55;;;19.20;99.90;;;;;;5064083;28;20041;-55
2023/08/12 04:59:31;;;;;;;;;;;19.20;99.90;;;;;;5051032;28;20040;-52
2023/08/12 05:01:57;;;;;;;27.95;21.48;;;19.30;99.90;;;;;;5064301;28;19920;-52
2023/08/12 05:04:22;;;;;;;;;;;19.20;99.90;;;;;;5050039;28;20041;-52
2023/08/12 05:06:48;;;;;;;31.50;21.17;;;19.30;99.90;;;;;;5066800;28;19921;-55
2023/08/12 05:09:14;;;;;;;;;;;19.30;99.90;;;;;;5067765;28;20120;-52
2023/08/12 05:11:40;;;;;;;27.75;20.30;;;19.30;99.90;;;;;;5056110;28;19935;-55
2023/08/12 05:14:05;;;;;;;29.83;23.58;;;19.30;99.90;;;;;;5061341;28;20036;-52
2023/08/12 05:16:31;;;;;;;;;;;19.30;99.90;;;;;;5053659;28;20029;-53
2023/08/12 05:18:56;;;;;;;33.22;24.02;;;19.30;99.90;;;;;;5052872;28;19948;-53
2023/08/12 05:21:22;;;;;;;31.15;24.20;;;19.30;99.90;;;;;;5059759;28;20040;-52
2023/08/12 05:23:48;;;;;;;37.60;23.98;;;19.30;99.90;;;;;;5063899;28;20118;-57
2023/08/12 05:26:14;;;;;;;27.25;22.95;;;19.30;99.90;;;;;;5055034;28;20072;-53
2023/08/12 05:28:39;;;;;;;;;;;19.40;99.90;;;;;;5067438;28;20115;-52
2023/08/12 05:31:05;;;;;;;38.88;26.33;;;19.40;99.90;;;;;;5063389;28;20007;-56
2023/08/12 05:33:30;;;;;;;;;;;19.30;99.90;;;;;;5067427;28;20033;-52
2023/08/12 05:35:56;;;;;;;35.83;25.17;;;19.40;99.90;;;;;;5054000;28;20194;-52
2023/08/12 05:38:21;;;;;;;;;;;19.40;99.90;;;;;;5053214;28;20048;-56
2023/08/12 05:40:47;;;;;;;42.40;27.70;;;19.50;99.90;;;;;;5061023;28;20371;-56
2023/08/12 05:43:12;;;;;;;;;;;19.50;99.90;;;;;;5071309;28;20036;-53
2023/08/12 05:45:38;;;;;;;45.55;27.92;;;19.50;99.90;;;;;;5066122;28;19923;-52
2023/08/12 05:48:04;;;;;;;38.78;27.60;;;19.50;99.90;;;;;;5063546;28;20056;-53
2023/08/12 05:50:29;;;;;;;;;;;19.50;99.90;;;;;;5065402;28;20390;-53
2023/08/12 05:52:55;;;;;;;36.35;28.48;;;19.60;99.90;;;;;;5061879;28;20064;-53
2023/08/12 05:55:21;;;;;;;46.47;30.75;;;19.70;99.90;;;;;;5063277;28;20285;-53
2023/08/12 05:57:46;;;;;;;38.42;29.33;;;19.80;99.90;;;;;;5062064;28;20094;-53
2023/08/12 06:00:12;;;;;;;41.50;28.80;;;19.90;99.90;;;;;;5062712;28;20051;-54
2023/08/12 06:02:38;;;;;;;;;;;20.00;99.90;;;;;;5055372;28;20043;-55
2023/08/12 06:05:04;;;;;;;34.60;28.55;;;20.10;99.90;;;;;;5058904;28;19916;-55
2023/08/12 06:07:30;;;;;;;;;;;20.30;99.90;;;;;;5060658;28;20127;-52
2023/08/12 06:09:55;;;;;;;37.97;28.17;;;20.40;99.90;;;;;;5061500;28;20055;-53
2023/08/12 06:12:21;;;;;;;;;;;20.60;99.90;;;;;;5058985;28;20036;-54
2023/08/12 06:14:46;;;;;;;37.72;27.95;;;20.70;99.90;;;;;;5052908;28;19921;-52
2023/08/12 06:17:12;;;;;;;;;;;20.70;99.90;;;;;;5064708;28;20171;-54
2023/08/12 06:19:37;;;;;;;32.15;24.75;;;20.70;99.90;;;;;;5064537;28;19938;-53
2023/08/12 06:22:03;;;;;;;;;;;20.70;99.90;;;;;;5053201;28;20047;-52
2023/08/12 06:24:28;;;;;;;32.30;24.73;;;20.70;99.90;;;;;;5051367;28;19917;-54
2023/08/12 06:26:54;;;;;;;32.75;25.02;;;20.70;99.90;;;;;;5061713;28;20028;-52
2023/08/12 06:29:19;;;;;;;;;;;20.60;99.90;;;;;;5065091;28;20159;-54
2023/08/12 06:31:45;;;;;;;32.05;24.02;;;20.60;99.90;;;;;;5059177;28;19947;-53
2023/08/12 06:34:10;;;;;;;;;;;20.50;99.90;;;;;;5054320;28;20130;-52
2023/08/12 06:36:36;;;;;;;34.65;24.98;;;20.50;99.90;;;;;;5053775;28;20377;-54
2023/08/12 06:39:02;;;;;;;;;;;20.50;99.90;;;;;;5068536;28;20043;-54
2023/08/12 06:41:27;;;;;;;30.38;23.70;;;20.50;99.90;;;;;;5067209;28;20038;-53
2023/08/12 06:43:53;;;;;;;;;;;20.50;99.90;;;;;;5070299;28;20033;-56
2023/08/12 06:46:18;;;;;;;30.83;23.42;;;20.50;99.90;;;;;;5063196;28;19939;-55
2023/08/12 06:48:44;;;;;;;;;;;20.50;99.90;;;;;;5069570;28;20118;-52
2023/08/12 06:51:12;;;;;;;29.58;23.38;;;20.40;99.90;;;;;;5052798;28;19928;-53
2023/08/12 06:53:38;;;;;;;29.85;23.80;;;20.40;99.90;;;;;;5055871;28;20036;-52
2023/08/12 06:56:04;;;;;;;29.17;22.83;;;20.40;99.90;;;;;;5051315;28;20036;-53
2023/08/12 06:58:30;;;;;;;;;;;20.40;99.90;;;;;;5067712;28;20086;-52
2023/08/12 07:00:55;;;;;;;27.98;20.65;;;20.40;99.90;;;;;;5068956;28;19922;-54
2023/08/12 07:03:22;;;;;;;;;;;20.40;99.90;;;;;;5057642;28;20071;-53
2023/08/12 07:05:47;;;;;;;24.08;18.90;;;20.40;99.90;;;;;;5062511;28;20428;-53
2023/08/12 07:08:13;;;;;;;25.42;19.15;;;20.40;99.90;;;;;;5061573;28;20040;-54
2023/08/12 07:10:39;;;;;;;;;;;20.40;99.90;;;;;;5066147;28;20044;-52
2023/08/12 07:13:04;;;;;;;24.60;18.17;;;20.40;99.90;;;;;;5061448;28;19920;-53
2023/08/12 07:15:30;;;;;;;;;;;20.40;99.90;;;;;;5057448;28;20032;-55
2023/08/12 07:17:55;;;;;;;23.92;17.60;;;20.50;99.90;;;;;;5059050;28;19924;-52
2023/08/12 07:20:21;;;;;;;;;;;20.50;99.90;;;;;;5058622;28;20040;-53
2023/08/12 07:22:46;;;;;;;20.75;15.63;;;20.40;99.90;;;;;;5055317;28;19971;-54
2023/08/12 07:25:12;;;;;;;;;;;20.40;99.90;;;;;;5058067;28;20094;-54
2023/08/12 07:27:38;;;;;;;17.58;15.68;;;20.30;99.90;;;;;;5060058;28;19917;-54
2023/08/12 07:30:03;;;;;;;;;;;20.30;99.90;;;;;;5062916;28;20032;-55
2023/08/12 07:32:29;;;;;;;20.52;15.75;;;20.30;99.90;;;;;;5052916;28;20307;-52
2023/08/12 07:34:54;;;;;;;;;;;20.30;99.90;;;;;;5054560;28;20033;-55
2023/08/12 07:37:20;;;;;;;20.10;16.15;;;20.30;99.90;;;;;;5051177;28;20007;-52
2023/08/12 07:39:45;;;;;;;;;;;20.30;99.90;;;;;;5067041;28;20379;-52
2023/08/12 07:42:12;;;;;;;18.65;15.85;;;20.20;99.90;;;;;;5059143;28;19924;-54
2023/08/12 07:44:37;;;;;;;20.98;15.93;;;20.20;99.90;;;;;;5058742;28;20047;-55
2023/08/12 07:47:03;;;;;;;18.27;13.65;;;20.20;99.90;;;;;;5063495;28;20044;-53
2023/08/12 07:49:28;;;;;;;;;;;20.20;99.90;;;;;;5061474;28;20083;-54
2023/08/12 07:51:54;;;;;;;18.23;15.38;;;20.20;99.90;;;;;;5060947;28;19921;-53
2023/08/12 07:54:19;;;;;;;;;;;20.20;99.90;;;;;;5063316;28;20033;-52
2023/08/12 07:56:45;;;;;;;23.33;16.30;;;20.20;99.90;;;;;;5062151;28;20351;-52
2023/08/12 07:59:10;;;;;;;;;;;20.20;99.90;;;;;;5066803;28;20043;-54
2023/08/12 08:01:36;;;;;;;21.27;15.20;;;20.10;99.90;;;;;;5056254;28;19916;-54
2023/08/12 08:04:01;;;;;;;;;;;20.10;99.90;;;;;;5050492;28;20122;-52
2023/08/12 08:06:28;;;;;;;20.30;15.65;;;20.10;99.90;;;;;;5058707;28;19994;-55
2023/08/12 08:08:55;;;;;;;19.50;16.98;;;20.10;99.90;;;;;;5057048;28;20097;-53
2023/08/12 08:11:21;;;;;;;25.30;15.73;;;20.10;99.90;;;;;;5063421;28;20095;-52
2023/08/12 08:13:46;;;;;;;18.30;15.10;;;20.10;99.90;;;;;;5057564;28;20036;-53
2023/08/12 08:16:12;;;;;;;;;;;20.10;99.90;;;;;;5062087;28;20044;-52
2023/08/12 08:18:37;;;;;;;20.80;15.65;;;20.10;99.90;;;;;;5051660;28;20313;-52
2023/08/12 08:21:03;;;;;;;;;;;20.10;99.90;;;;;;5060614;28;20044;-52
2023/08/12 08:23:29;;;;;;;18.88;15.45;;;20.10;99.90;;;;;;5062729;28;19948;-52
2023/08/12 08:25:54;;;;;;;;;;;20.10;99.90;;;;;;5059342;28;20119;-54
2023/08/12 08:28:20;;;;;;;19.45;15.52;;;20.10;99.90;;;;;;5060760;28;19955;-54
2023/08/12 08:30:45;;;;;;;;;;;20.10;99.90;;;;;;5064347;28;20078;-52
2023/08/12 08:33:11;;;;;;;23.35;16.63;;;20.10;99.90;;;;;;5059416;28;19931;-52
2023/08/12 08:35:36;;;;;;;18.73;15.23;;;20.10;99.90;;;;;;5055661;28;20044;-54
2023/08/12 08:38:02;;;;;;;18.52;15.07;;;20.20;99.90;;;;;;5056470;28;20551;-54
2023/08/12 08:40:28;;;;;;;;;;;20.10;99.90;;;;;;5052600;28;20579;-52
2023/08/12 08:42:53;;;;;;;18.98;15.25;;;20.20;99.90;;;;;;5060120;28;19916;-54
2023/08/12 08:45:20;;;;;;;;;;;20.20;99.90;;;;;;5058371;28;20033;-54
2023/08/12 08:47:47;;;;;;;15.20;13.27;;;20.20;99.90;;;;;;5055693;28;19921;-53
2023/08/12 08:50:14;;;;;;;20.02;16.17;;;20.30;99.90;;;;;;5059449;28;20060;-57
2023/08/12 08:52:41;;;;;;;18.10;14.50;;;20.30;99.90;;;;;;5066049;28;20075;-55
2023/08/12 08:55:07;;;;;;;22.25;16.13;;;20.30;99.90;;;;;;5058917;28;20063;-56
2023/08/12 08:57:33;;;;;;;;;;;20.30;99.90;;;;;;5060060;28;20029;-54
2023/08/12 08:59:59;;;;;;;16.90;15.18;;;20.30;99.90;;;;;;5060493;28;20397;-56
2023/08/12 09:02:24;;;;;;;;;;;20.30;99.90;;;;;;5061290;28;20442;-57
2023/08/12 09:04:51;;;;;;;23.20;16.15;;;20.30;99.90;;;;;;5062078;28;20392;-53
2023/08/12 09:07:17;;;;;;;20.63;15.57;;;20.30;99.90;;;;;;5067679;28;20545;-57
2023/08/12 09:09:48;;;;;;;;;;;20.30;99.90;;;;;;5063150;28;20033;-54
2023/08/12 09:12:15;;;;;;;19.60;15.48;;;20.30;99.90;;;;;;5063280;28;20696;-54
2023/08/12 09:14:43;;;;;;;17.95;15.38;;;20.30;99.90;;;;;;5068920;28;20036;-54
2023/08/12 09:17:11;;;;;;;16.40;13.65;;;20.30;99.90;;;;;;5062252;28;20183;-57
2023/08/12 09:19:37;;;;;;;20.85;13.40;;;20.30;99.90;;;;;;5064782;28;20033;-56
2023/08/12 09:22:04;;;;;;;;;;;20.20;99.90;;;;;;5063611;28;20510;-56
2023/08/12 09:24:30;;;;;;;12.85;11.52;;;20.20;99.90;;;;;;5060128;28;19916;-54
2023/08/12 09:26:55;;;;;;;;;;;20.20;99.90;;;;;;5064653;28;20413;-54
2023/08/12 09:29:34;;;;;;;18.70;11.70;;;20.20;99.90;;;;;;5061631;28;20071;-55
2023/08/12 09:32:07;;;;;;;14.55;10.85;;;20.20;99.90;;;;;;5059616;28;20044;-57
2023/08/12 15:16:58;;;;;;;9.25;1.27;;;23.10;99.90;;;;;;5127706;27;20321;-52
2023/08/12 15:19:24;;;;;;;;;;;23.10;99.90;;;;;;5118807;28;20042;-53
2023/08/12 15:21:50;;;;;;;7.03;1.00;;;23.10;99.90;;;;;;5118410;28;19920;-54
2023/08/12 15:24:16;;;;;;;5.25;1.38;;;23.10;99.90;;;;;;5106878;28;20038;-55
2023/08/12 15:26:42;;;;;;;;;;;23.10;99.90;;;;;;5105670;28;20044;-55
2023/08/12 15:29:08;;;;;;;5.70;0.77;;;23.10;99.90;;;;;;5107751;28;19951;-55
2023/08/12 15:31:33;;;;;;;;;;;23.00;99.90;;;;;;5108086;28;20028;-53
2023/08/12 15:33:59;;;;;;;8.80;1.30;;;22.90;99.90;;;;;;5107567;28;19950;-56
2023/08/12 15:36:24;;;;;;;4.40;0.95;;;22.90;99.90;;;;;;5107223;28;20377;-55
2023/08/12 15:38:50;;;;;;;;;;;22.80;99.90;;;;;;5108144;28;20062;-56
2023/08/12 15:41:16;;;;;;;6.55;1.38;;;22.80;99.90;;;;;;5107213;28;19915;-53
2023/08/12 15:43:42;;;;;;;7.65;1.40;;;22.80;99.90;;;;;;5107619;28;20040;-54
2023/08/12 15:46:08;;;;;;;3.88;0.90;;;22.80;99.90;;;;;;5107331;28;20119;-53
2023/08/12 15:48:34;;;;;;;;;;;22.80;99.90;;;;;;5107186;28;20118;-53
2023/08/12 15:51:00;;;;;;;7.78;1.70;;;22.80;99.90;;;;;;5107319;28;19920;-53
2023/08/12 15:53:26;;;;;;;7.15;0.98;;;22.70;99.90;;;;;;5107134;28;20481;-53
2023/08/12 15:55:52;;;;;;;8.15;1.00;;;22.70;99.90;;;;;;5105967;28;20054;-54
2023/08/12 15:58:18;;;;;;;7.15;1.02;;;22.60;99.90;;;;;;5106859;28;20051;-54
2023/08/12 16:00:44;;;;;;;6.90;1.10;;;22.60;99.90;;;;;;5107368;28;20115;-56
2023/08/12 16:03:10;;;;;;;6.80;1.35;;;22.60;99.90;;;;;;5107098;28;20540;-53
2023/08/12 16:05:36;;;;;;;;;;;22.50;99.90;;;;;;5107368;28;20126;-53
2023/08/12 16:08:03;;;;;;;6.65;1.20;;;22.50;99.90;;;;;;5106297;28;19916;-53
2023/08/12 16:10:29;;;;;;;6.50;1.02;;;22.50;99.90;;;;;;5099623;28;20074;-53
2023/08/12 16:12:54;;;;;;;;;;;22.50;99.90;;;;;;5107100;28;20061;-53
2023/08/12 16:15:20;;;;;;;21.45;1.65;;;22.60;99.90;;;;;;5106674;28;19920;-56
2023/08/12 16:17:45;;;;;;;;;;;22.60;99.90;;;;;;5105711;28;20443;-56
2023/08/12 16:20:12;;;;;;;6.65;1.67;;;22.60;99.90;;;;;;5106647;28;19927;-54
2023/08/12 16:22:38;;;;;;;6.70;0.95;;;22.60;99.90;;;;;;5105619;28;20058;-54
2023/08/12 16:25:05;;;;;;;6.60;0.77;;;22.60;99.90;;;;;;5104104;28;20069;-56
2023/08/12 16:27:30;;;;;;;14.32;1.45;;;22.60;99.90;;;;;;5096228;28;20040;-53
2023/08/12 16:29:56;;;;;;;;;;;22.60;99.90;;;;;;5092067;28;20038;-55
2023/08/12 16:32:22;;;;;;;5.00;0.90;;;22.50;99.90;;;;;;5091248;28;20014;-56
2023/08/12 16:34:48;;;;;;;;;;;22.50;99.90;;;;;;5092157;28;20122;-54
2023/08/12 16:37:13;;;;;;;7.00;1.70;;;22.40;99.90;;;;;;5092010;28;19919;-54
2023/08/12 16:39:39;;;;;;;5.80;1.13;;;22.50;99.90;;;;;;5091341;28;20520;-55
2023/08/12 16:42:04;;;;;;;4.78;1.17;;;22.40;99.90;;;;;;5091240;28;20032;-54
2023/08/12 16:44:30;;;;;;;6.97;1.50;;;22.40;99.90;;;;;;5088711;28;20093;-56
2023/08/12 16:46:55;;;;;;;9.98;1.00;;;22.40;99.90;;;;;;5090511;28;20036;-56
2023/08/12 16:49:21;;;;;;;6.05;1.27;;;22.30;99.90;;;;;;5091156;28;20028;-53
2023/08/12 16:51:47;;;;;;;7.20;1.48;;;22.20;99.90;;;;;;5091070;28;20400;-56
2023/08/12 16:54:12;;;;;;;6.80;1.42;;;22.20;99.90;;;;;;5091209;28;20032;-55
2023/08/12 16:56:38;;;;;;;;;;;22.20;99.90;;;;;;5088538;28;20059;-53
2023/08/12 16:59:03;;;;;;;7.80;1.50;;;22.30;99.90;;;;;;5085593;28;19928;-56
2023/08/12 17:01:29;;;;;;;8.80;1.40;;;22.40;99.90;;;;;;5090534;28;20032;-53
2023/08/12 17:03:54;;;;;;;7.70;1.30;;;22.40;99.90;;;;;;5091066;28;20346;-55
2023/08/12 17:06:20;;;;;;;;;;;22.50;99.90;;;;;;5091474;28;20048;-56
2023/08/12 17:08:46;;;;;;;8.60;1.35;;;22.50;99.90;;;;;;5091128;28;19959;-53
2023/08/12 17:11:11;;;;;;;7.18;1.73;;;22.50;99.90;;;;;;5090836;28;20130;-56
2023/08/12 17:13:37;;;;;;;5.20;1.35;;;22.40;99.90;;;;;;5091163;28;20055;-55
2023/08/12 17:16:03;;;;;;;9.15;1.50;;;22.40;99.90;;;;;;5087865;28;20105;-54
2023/08/12 17:18:28;;;;;;;8.80;1.70;;;22.40;99.90;;;;;;5090049;28;20155;-53
2023/08/12 17:20:54;;;;;;;;;;;22.40;99.90;;;;;;5091533;28;20120;-52
2023/08/12 17:23:19;;;;;;;7.75;1.77;;;22.40;99.90;;;;;;5090890;28;19924;-55
2023/08/12 17:25:46;;;;;;;7.97;1.40;;;22.40;99.90;;;;;;5090620;28;20032;-54
2023/08/12 17:28:11;;;;;;;10.88;2.10;;;22.30;99.90;;;;;;5090182;28;20149;-54
2023/08/12 17:30:37;;;;;;;;;;;22.20;99.90;;;;;;5090299;28;20540;-54
2023/08/12 17:33:03;;;;;;;8.27;1.33;;;22.10;99.90;;;;;;5090637;28;20061;-53
2023/08/12 17:35:28;;;;;;;9.80;1.65;;;22.00;99.90;;;;;;5090248;28;20504;-52
2023/08/12 17:37:54;;;;;;;;;;;22.00;99.90;;;;;;5090615;28;20035;-55
2023/08/12 17:40:22;;;;;;;5.93;1.60;;;21.90;99.90;;;;;;5090285;28;20056;-53
2023/08/12 17:42:48;;;;;;;9.98;1.60;;;21.90;99.90;;;;;;5090574;28;20055;-55
2023/08/12 17:45:14;;;;;;;12.82;1.98;;;21.80;99.90;;;;;;5090260;28;20048;-54
2023/08/12 17:47:40;;;;;;;;;;;21.70;99.90;;;;;;5090894;28;20042;-53
2023/08/12 17:50:10;;;;;;;13.30;1.85;;;21.70;99.90;;;;;;5090725;28;19915;-56
2023/08/12 17:52:35;;;;;;;6.05;1.15;;;21.60;99.90;;;;;;5090414;28;20043;-56
2023/08/12 17:55:00;;;;;;;;;;;21.60;99.90;;;;;;5090666;28;20040;-55
2023/08/12 17:57:26;;;;;;;8.05;1.52;;;21.50;99.90;;;;;;5090335;28;19920;-53
2023/08/12 17:59:52;;;;;;;;;;;21.50;99.90;;;;;;5091038;28;20477;-53
2023/08/12 18:02:18;;;;;;;9.23;1.30;;;21.40;99.90;;;;;;5090014;28;20560;-56
2023/08/12 18:04:43;;;;;;;;;;;21.40;99.90;;;;;;5089516;28;20027;-55
2023/08/12 18:07:09;;;;;;;8.50;1.08;;;21.40;99.90;;;;;;5090234;28;19916;-52
2023/08/12 18:09:34;;;;;;;;;;;21.40;99.90;;;;;;5088393;28;20035;-53
2023/08/12 18:12:00;;;;;;;7.50;1.58;;;21.40;99.90;;;;;;5089275;28;19919;-55
2023/08/12 18:14:25;;;;;;;;;;;21.40;99.90;;;;;;5090490;28;20577;-55
2023/08/12 18:16:51;;;;;;;4.45;0.85;;;21.30;99.90;;;;;;5089824;28;19947;-53
2023/08/12 18:19:16;;;;;;;;;;;21.30;99.90;;;;;;5090522;28;20118;-56
2023/08/12 18:21:42;;;;;;;7.78;1.25;;;21.20;99.90;;;;;;5089954;28;20403;-54
2023/08/12 18:24:07;;;;;;;;;;;21.20;99.90;;;;;;5090088;28;20072;-53
2023/08/12 18:26:33;;;;;;;8.80;1.52;;;21.10;99.90;;;;;;5089215;28;19975;-52
2023/08/12 18:28:58;;;;;;;;;;;21.00;99.90;;;;;;5090337;28;20036;-53
2023/08/12 18:31:24;;;;;;;9.68;1.55;;;20.90;99.90;;;;;;5087453;28;19920;-56
2023/08/12 18:33:49;;;;;;;;;;;20.90;99.90;;;;;;5088261;28;21335;-54
2023/08/12 18:36:15;;;;;;;8.15;1.67;;;20.80;99.90;;;;;;5089370;28;19916;-56
2023/08/12 18:38:41;;;;;;;;;;;20.80;99.90;;;;;;5088446;28;20408;-52